Time;durP1;ratioP1;P1;durP2;ratioP2;P2;SDS_P1;SDS_P2;PMS_P1;PMS_P2;Temp;Humidity;BMP_temperature;BMP_pressure;BME280_temperature;BME280_humidity;BME280_pressure;Samples;Min_cycle;Max_cycle;Signal;HPM_P1;HPM_P2
2022/07/02 00:01:11;;;;;;;24.23;5.90;;;;;;;;;;4392130;32;20022;-73
2022/07/02 00:03:37;;;;;;;21.85;6.57;;;;;;;;;;4391631;32;20026;-72
2022/07/02 00:06:03;;;;;;;18.62;5.75;;;;;;;;;;4392131;32;20049;-73
2022/07/02 00:08:29;;;;;;;10.60;4.93;;;;;;;;;;4391809;32;20038;-73
2022/07/02 00:10:55;;;;;;;12.75;4.82;;;;;;;;;;4391813;32;20049;-73
2022/07/02 00:13:21;;;;;;;13.07;4.68;;;;;;;;;;4391324;32;20476;-73
2022/07/02 00:15:47;;;;;;;15.60;4.30;;;;;;;;;;4391721;32;20022;-73
2022/07/02 00:18:13;;;;;;;16.90;4.37;;;;;;;;;;4392542;32;20091;-73
2022/07/02 00:20:40;;;;;;;14.65;4.82;;;;;;;;;;4391978;32;20021;-73
2022/07/02 00:23:05;;;;;;;11.48;3.95;;;;;;;;;;4391190;32;20082;-72
2022/07/02 00:25:53;;;;;;;13.40;4.15;;;;;;;;;;4392027;32;20352;-72
2022/07/02 00:31:22;;;;;;;18.55;4.50;;;;;;;;;;4392768;32;20068;-73
2022/07/02 00:34:22;;;;;;;14.20;4.50;;;;;;;;;;4391368;32;20019;-73
2022/07/02 00:36:47;;;;;;;10.32;4.53;;;;;;;;;;4389153;32;20023;-72
2022/07/02 00:39:30;;;;;;;11.10;3.78;;;;;;;;;;4390360;32;20034;-72
2022/07/02 00:41:59;;;;;;;12.77;5.18;;;;;;;;;;4378258;32;20050;-73
2022/07/02 00:44:48;;;;;;;10.00;3.83;;;;;;;;;;4391310;32;20030;-73
2022/07/02 00:47:14;;;;;;;11.55;3.72;;;;;;;;;;4382252;32;20053;-73
2022/07/02 00:50:05;;;;;;;9.35;3.50;;;;;;;;;;4391652;32;20093;-72
2022/07/02 00:52:34;;;;;;;13.40;4.40;;;;;;;;;;4381893;32;20084;-73
2022/07/02 00:54:59;;;;;;;10.88;4.25;;;;;;;;;;4390697;32;20043;-72
2022/07/02 00:57:25;;;;;;;12.57;5.37;;;;;;;;;;4391388;32;20070;-73
2022/07/02 00:59:50;;;;;;;16.33;5.00;;;;;;;;;;4377509;32;20053;-74
2022/07/02 01:02:17;;;;;;;13.48;5.03;;;;;;;;;;4391256;32;20031;-74
2022/07/02 01:04:44;;;;;;;15.25;6.57;;;;;;;;;;4391055;32;20053;-74
2022/07/02 01:07:11;;;;;;;23.33;5.60;;;;;;;;;;4391266;32;20434;-74
2022/07/02 01:12:22;;;;;;;13.80;6.70;;;;;;;;;;4391394;32;20041;-74
2022/07/02 01:14:48;;;;;;;19.20;6.65;;;;;;;;;;4377422;32;20027;-74
2022/07/02 01:17:14;;;;;;;13.75;5.80;;;;;;;;;;4391422;32;20081;-74
2022/07/02 01:19:39;;;;;;;15.93;5.60;;;;;;;;;;4390356;32;20026;-73
2022/07/02 01:22:09;;;;;;;17.12;5.15;;;;;;;;;;4390888;32;20057;-74
2022/07/02 01:24:35;;;;;;;14.48;4.82;;;;;;;;;;4391040;32;20034;-74
2022/07/02 01:27:00;;;;;;;9.25;4.40;;;;;;;;;;4390307;32;20031;-74
2022/07/02 01:29:25;;;;;;;9.05;4.37;;;;;;;;;;4390725;32;20022;-74
2022/07/02 01:31:51;;;;;;;16.73;4.95;;;;;;;;;;4390895;32;20052;-73
2022/07/02 01:34:16;;;;;;;10.23;3.40;;;;;;;;;;4390780;32;20019;-74
2022/07/02 01:36:41;;;;;;;17.42;4.55;;;;;;;;;;4390789;32;20065;-74
2022/07/02 01:39:07;;;;;;;8.70;3.78;;;;;;;;;;4389444;32;20026;-73
2022/07/02 01:41:38;;;;;;;10.02;3.42;;;;;;;;;;4390712;32;20038;-74
2022/07/02 01:44:09;;;;;;;6.62;3.05;;;;;;;;;;4390648;32;20108;-73
2022/07/02 01:46:35;;;;;;;9.02;2.85;;;;;;;;;;4390970;32;20031;-74
2022/07/02 01:49:00;;;;;;;11.27;3.62;;;;;;;;;;4391092;32;20405;-74
2022/07/02 01:51:26;;;;;;;10.50;4.00;;;;;;;;;;4390647;32;20034;-74
2022/07/02 01:53:51;;;;;;;10.45;3.22;;;;;;;;;;4390429;32;20110;-74
2022/07/02 01:56:19;;;;;;;9.82;4.00;;;;;;;;;;4391213;32;20357;-74
2022/07/02 02:02:20;;;;;;;10.38;3.15;;;;;;;;;;4358248;33;20114;-74
2022/07/02 02:04:56;;;;;;;7.40;2.90;;;;;;;;;;4357960;33;20090;-74
2022/07/02 02:07:21;;;;;;;9.90;2.65;;;;;;;;;;4387952;32;20022;-73
2022/07/02 02:09:46;;;;;;;4.07;2.28;;;;;;;;;;4390435;32;20340;-72
2022/07/02 02:12:15;;;;;;;;;;;;;;;;;;4390887;32;20042;-73
2022/07/02 02:14:40;;;;;;;8.15;2.67;;;;;;;;;;4390809;32;19953;-73
2022/07/02 02:17:08;;;;;;;6.12;1.92;;;;;;;;;;4390816;32;20376;-73
2022/07/02 02:19:34;;;;;;;5.00;2.47;;;;;;;;;;4390294;32;20027;-73
2022/07/02 02:21:59;;;;;;;10.90;2.42;;;;;;;;;;4390396;32;20072;-73
2022/07/02 02:24:24;;;;;;;;;;;;;;;;;;4390752;32;20058;-73
2022/07/02 02:26:53;;;;;;;8.75;2.08;;;;;;;;;;4390574;32;19938;-72
2022/07/02 02:29:18;;;;;;;8.52;2.65;;;;;;;;;;4390130;32;20061;-72
2022/07/02 02:31:43;;;;;;;9.73;2.75;;;;;;;;;;4377075;32;20393;-72
2022/07/02 02:34:09;;;;;;;8.45;2.30;;;;;;;;;;4390280;32;20023;-72
2022/07/02 02:36:34;;;;;;;9.27;2.70;;;;;;;;;;4390447;32;20388;-73
2022/07/02 02:39:00;;;;;;;7.03;2.70;;;;;;;;;;4390005;32;20052;-73
2022/07/02 02:41:25;;;;;;;;;;;;;;;;;;4390372;32;20031;-73
2022/07/02 02:43:50;;;;;;;8.60;2.60;;;;;;;;;;4390784;32;19938;-72
2022/07/02 02:46:16;;;;;;;;;;;;;;;;;;4390636;32;20080;-73
2022/07/02 02:48:48;;;;;;;6.43;2.40;;;;;;;;;;4389955;32;19945;-72
2022/07/02 02:51:15;;;;;;;7.90;2.60;;;;;;;;;;4392432;32;20505;-73
2022/07/02 02:53:47;;;;;;;6.57;2.40;;;;;;;;;;4392851;32;20023;-72
2022/07/02 02:56:13;;;;;;;6.47;2.50;;;;;;;;;;4392509;32;20045;-72
2022/07/02 02:58:38;;;;;;;9.43;2.30;;;;;;;;;;4392951;32;20027;-72
2022/07/02 03:02:15;;;;;;;6.50;2.53;;;;;;;;;;4392692;32;20049;-72
2022/07/02 03:04:16;;;;;;;5.65;2.40;;;;;;;;;;4372206;32;20505;-73
2022/07/02 03:06:41;;;;;;;5.68;2.62;;;;;;;;;;4393028;32;20050;-73
2022/07/02 03:09:11;;;;;;;6.07;2.72;;;;;;;;;;4393173;32;20135;-72
2022/07/02 03:11:36;;;;;;;8.10;2.35;;;;;;;;;;4393438;32;20030;-73
2022/07/02 03:14:02;;;;;;;5.80;2.30;;;;;;;;;;4392923;32;20073;-73
2022/07/02 03:16:27;;;;;;;6.03;2.20;;;;;;;;;;4393095;32;20046;-72
2022/07/02 03:18:53;;;;;;;6.15;2.33;;;;;;;;;;4392215;32;20053;-72
2022/07/02 03:21:18;;;;;;;6.00;2.85;;;;;;;;;;4379662;32;20030;-73
2022/07/02 03:23:43;;;;;;;6.78;2.85;;;;;;;;;;4364042;32;20409;-73
2022/07/02 03:26:09;;;;;;;5.55;2.08;;;;;;;;;;4364570;32;20047;-73
2022/07/02 03:28:34;;;;;;;;;;;;;;;;;;4378371;32;20042;-73
2022/07/02 03:31:05;;;;;;;4.95;2.42;;;;;;;;;;4377233;32;19972;-73
2022/07/02 03:33:33;;;;;;;8.65;3.00;;;;;;;;;;4377812;32;20360;-73
2022/07/02 03:35:59;;;;;;;7.28;3.05;;;;;;;;;;4377397;32;20031;-73
2022/07/02 03:38:33;;;;;;;8.75;2.65;;;;;;;;;;4378114;32;20092;-72
2022/07/02 03:41:01;;;;;;;8.55;3.05;;;;;;;;;;4376750;32;20365;-72
2022/07/02 03:43:26;;;;;;;8.18;3.00;;;;;;;;;;4363469;32;20356;-73
2022/07/02 03:45:52;;;;;;;7.87;3.03;;;;;;;;;;4377317;32;20043;-73
2022/07/02 03:48:17;;;;;;;;;;;;;;;;;;4377792;32;20364;-73
2022/07/02 03:50:45;;;;;;;8.15;2.87;;;;;;;;;;4377477;32;19953;-73
2022/07/02 03:56:31;;;;;;;6.90;2.90;;;;;;;;;;4315613;33;20067;-73
2022/07/02 03:58:59;;;;;;;5.43;2.53;;;;;;;;;;4315878;33;20072;-73
2022/07/02 04:04:36;;;;;;;8.02;2.67;;;;;;;;;;4375767;32;20450;-73
2022/07/02 04:07:02;;;;;;;9.63;2.67;;;;;;;;;;4378440;32;20444;-72
2022/07/02 04:09:27;;;;;;;7.20;2.45;;;;;;;;;;4377425;32;20027;-72
2022/07/02 04:11:52;;;;;;;8.98;2.80;;;;;;;;;;4377080;32;20039;-73
2022/07/02 04:14:18;;;;;;;6.95;2.78;;;;;;;;;;4376690;32;20455;-73
2022/07/02 04:16:43;;;;;;;;;;;;;;;;;;4376884;32;20027;-73
2022/07/02 04:19:28;;;;;;;;;;;;;;;;;;;;;
2022/07/02 04:21:54;;;;;;;9.60;2.53;;;;;;;;;;4376056;32;20123;-74
2022/07/02 04:24:23;;;;;;;7.47;2.53;;;;;;;;;;4377165;32;20444;-74
2022/07/02 04:26:48;;;;;;;6.82;2.20;;;;;;;;;;4377549;32;20322;-73
2022/07/02 04:29:13;;;;;;;4.75;2.30;;;;;;;;;;4376798;32;20054;-74
2022/07/02 04:31:41;;;;;;;;;;;;;;;;;;4377310;32;20350;-73
2022/07/02 04:34:06;;;;;;;;;;;;;;;;;;4376699;32;19937;-73
2022/07/02 04:36:35;;;;;;;9.50;4.03;;;;;;;;;;4376795;32;20264;-73
2022/07/02 04:39:01;;;;;;;6.93;2.30;;;;;;;;;;4376053;32;20099;-73
2022/07/02 04:41:27;;;;;;;4.75;2.40;;;;;;;;;;4376050;32;20039;-72
2022/07/02 04:43:52;;;;;;;8.77;2.50;;;;;;;;;;4376131;32;20027;-73
2022/07/02 04:46:18;;;;;;;5.57;2.33;;;;;;;;;;4376020;32;20064;-73
2022/07/02 04:48:46;;;;;;;8.45;3.35;;;;;;;;;;4376264;32;20405;-72
2022/07/02 04:51:12;;;;;;;11.02;3.40;;;;;;;;;;4376602;32;20048;-74
2022/07/02 04:53:40;;;;;;;9.40;3.62;;;;;;;;;;4377184;32;20030;-73
2022/07/02 04:56:06;;;;;;;12.07;2.97;;;;;;;;;;4376375;32;20084;-72
2022/07/02 04:58:31;;;;;;;9.10;2.47;;;;;;;;;;4376268;32;20091;-73
2022/07/02 05:00:56;;;;;;;11.70;2.90;;;;;;;;;;4362105;32;20065;-72
2022/07/02 05:03:22;;;;;;;10.23;2.50;;;;;;;;;;4375677;32;20365;-74
2022/07/02 05:05:47;;;;;;;6.82;2.20;;;;;;;;;;4375624;32;20053;-72
2022/07/02 05:08:13;;;;;;;8.48;2.22;;;;;;;;;;4375738;32;20031;-73
2022/07/02 05:10:48;;;;;;;8.82;2.30;;;;;;;;;;4377219;32;20443;-72
2022/07/02 05:13:13;;;;;;;5.00;2.20;;;;;;;;;;4376143;32;20019;-73
2022/07/02 05:15:39;;;;;;;6.60;2.12;;;;;;;;;;4375922;32;20049;-73
2022/07/02 05:18:04;;;;;;;13.98;2.65;;;;;;;;;;4375588;32;20080;-72
2022/07/02 05:20:30;;;;;;;7.37;2.97;;;;;;;;;;4363130;32;20102;-72
2022/07/02 05:22:55;;;;;;;7.00;2.58;;;;;;;;;;4375639;32;20062;-72
2022/07/02 05:25:20;;;;;;;4.75;2.25;;;;;;;;;;4375293;32;20030;-73
2022/07/02 05:27:46;;;;;;;14.52;2.90;;;;;;;;;;4375227;32;20401;-72
2022/07/02 05:30:11;;;;;;;8.00;2.42;;;;;;;;;;4375181;32;20073;-72
2022/07/02 05:32:36;;;;;;;9.85;2.92;;;;;;;;;;4376323;32;20026;-72
2022/07/02 05:35:03;;;;;;;10.65;3.30;;;;;;;;;;4375878;32;20023;-71
2022/07/02 05:37:28;;;;;;;6.12;2.50;;;;;;;;;;4363253;32;20027;-74
2022/07/02 05:39:53;;;;;;;16.35;2.62;;;;;;;;;;4375293;32;20073;-74
2022/07/02 05:42:19;;;;;;;9.90;2.33;;;;;;;;;;4375920;32;20058;-73
2022/07/02 05:44:44;;;;;;;8.13;2.35;;;;;;;;;;4376036;32;20034;-74
2022/07/02 05:47:12;;;;;;;10.30;2.87;;;;;;;;;;4376713;32;20030;-74
2022/07/02 05:49:43;;;;;;;14.63;2.85;;;;;;;;;;4362679;32;20340;-74
2022/07/02 05:52:41;;;;;;;;;;;;;;;;;;;;;
2022/07/02 05:55:07;;;;;;;10.52;2.62;;;;;;;;;;4371093;32;20035;-73
2022/07/02 05:57:32;;;;;;;23.45;3.25;;;;;;;;;;4375066;32;20045;-73
2022/07/02 05:59:57;;;;;;;13.20;2.50;;;;;;;;;;4375059;32;20053;-73
2022/07/02 06:02:23;;;;;;;20.48;3.25;;;;;;;;;;4375638;32;20398;-73
2022/07/02 06:04:48;;;;;;;17.52;3.10;;;;;;;;;;4375245;32;20072;-73
2022/07/02 06:09:58;;;;;;;23.23;2.95;;;;;;;;;;4375868;32;20065;-72
2022/07/02 06:12:24;;;;;;;10.48;2.00;;;;;;;;;;4375623;32;20035;-72
2022/07/02 06:14:49;;;;;;;6.62;2.03;;;;;;;;;;4375148;32;20061;-73
2022/07/02 06:17:14;;;;;;;16.67;2.72;;;;;;;;;;4375290;32;20116;-73
2022/07/02 06:19:40;;;;;;;9.98;2.70;;;;;;;;;;4361700;32;20027;-73
2022/07/02 06:22:05;;;;;;;22.55;3.45;;;;;;;;;;4374801;32;20468;-72
2022/07/02 06:24:36;;;;;;;12.65;3.53;;;;;;;;;;4375530;32;20326;-72
2022/07/02 06:27:02;;;;;;;19.23;2.97;;;;;;;;;;4378138;32;20022;-72
2022/07/02 06:29:30;;;;;;;15.43;3.30;;;;;;;;;;4364574;32;20046;-72
2022/07/02 06:31:55;;;;;;;24.15;2.85;;;;;;;;;;4364977;32;20081;-72
2022/07/02 06:36:57;;;;;;;15.70;2.67;;;;;;;;;;4448916;31;20059;-73
2022/07/02 06:39:23;;;;;;;26.20;3.58;;;;;;;;;;4444141;32;20022;-73
2022/07/02 06:44:34;;;;;;;17.85;2.50;;;;;;;;;;4434912;32;20502;-74
2022/07/02 06:47:00;;;;;;;19.75;2.70;;;;;;;;;;4433713;32;20022;-73
2022/07/02 06:49:26;;;;;;;22.08;3.05;;;;;;;;;;4420573;32;20128;-73
2022/07/02 06:51:51;;;;;;;36.17;4.65;;;;;;;;;;4433671;32;20059;-72
2022/07/02 06:54:17;;;;;;;16.95;2.83;;;;;;;;;;4419712;32;20089;-72
2022/07/02 06:56:43;;;;;;;26.62;3.20;;;;;;;;;;4434166;32;20105;-72
2022/07/02 06:59:08;;;;;;;32.20;3.87;;;;;;;;;;4433890;32;20052;-72
2022/07/02 07:01:34;;;;;;;34.67;3.70;;;;;;;;;;4434832;32;20393;-72
2022/07/02 07:03:59;;;;;;;34.53;3.70;;;;;;;;;;4419407;32;20056;-73
2022/07/02 07:06:25;;;;;;;34.70;4.22;;;;;;;;;;4433417;32;20343;-72
2022/07/02 07:08:54;;;;;;;45.67;3.33;;;;;;;;;;4433676;32;20118;-72
2022/07/02 07:11:20;;;;;;;28.83;3.17;;;;;;;;;;4433472;32;20342;-73
2022/07/02 07:13:45;;;;;;;28.10;3.12;;;;;;;;;;4433648;32;20060;-73
2022/07/02 07:16:11;;;;;;;36.38;3.22;;;;;;;;;;4433070;32;20410;-73
2022/07/02 07:18:36;;;;;;;38.03;3.70;;;;;;;;;;4433023;32;20026;-73
2022/07/02 07:21:02;;;;;;;34.15;3.33;;;;;;;;;;4433527;32;20052;-74
2022/07/02 07:28:27;;;;;;;18.60;2.90;;;;;;;;;;4449165;32;20060;-74
2022/07/02 07:30:55;;;;;;;48.35;4.47;;;;;;;;;;4434756;32;20048;-73
2022/07/02 07:33:20;;;;;;;30.88;3.75;;;;;;;;;;4433706;32;20056;-73
2022/07/02 07:38:29;;;;;;;28.05;3.25;;;;;;;;;;4434045;32;20368;-74
2022/07/02 07:41:16;;;;;;;42.20;3.58;;;;;;;;;;4419871;32;20124;-73
2022/07/02 07:46:12;;;;;;;23.48;2.60;;;;;;;;;;4450047;32;20120;-73
2022/07/02 07:48:40;;;;;;;31.55;4.47;;;;;;;;;;4419608;32;20017;-74
2022/07/02 07:51:08;;;;;;;30.65;2.87;;;;;;;;;;4433976;32;20084;-73
2022/07/02 07:53:34;;;;;;;23.83;4.22;;;;;;;;;;4434096;32;20157;-73
2022/07/02 07:56:02;;;;;;;58.13;4.25;;;;;;;;;;4434285;32;20442;-72
2022/07/02 07:58:27;;;;;;;36.20;4.50;;;;;;;;;;4433641;32;20030;-72
2022/07/02 08:00:52;;;;;;;64.15;4.75;;;;;;;;;;4434300;32;20465;-72
2022/07/02 08:03:18;;;;;;;38.17;4.10;;;;;;;;;;4434246;32;20056;-74
2022/07/02 08:05:46;;;;;;;30.77;3.03;;;;;;;;;;4419830;32;20373;-73
2022/07/02 08:08:14;;;;;;;53.78;3.87;;;;;;;;;;4419930;32;20048;-73
2022/07/02 08:13:13;;;;;;;54.35;4.60;;;;;;;;;;4448956;32;20051;-73
2022/07/02 08:18:39;;;;;;;27.75;3.75;;;;;;;;;;4402698;32;20039;-73
2022/07/02 08:38:19;;;;;;;57.58;5.22;;;;;;;;;;4400501;32;20060;-73
2022/07/02 08:45:48;;;;;;;48.63;3.72;;;;;;;;;;4433618;32;20063;-74
2022/07/02 08:50:48;;;;;;;58.60;4.40;;;;;;;;;;4464722;32;20063;-74
2022/07/02 08:53:16;;;;;;;65.85;5.15;;;;;;;;;;4449659;32;20033;-73
2022/07/02 08:55:43;;;;;;;54.25;3.83;;;;;;;;;;4449049;32;20052;-72
2022/07/02 09:05:30;;;;;;;50.00;3.97;;;;;;;;;;4480082;31;20054;-73
2022/07/02 09:10:20;;;;;;;66.55;5.50;;;;;;;;;;4479713;31;20058;-72
2022/07/02 09:12:47;;;;;;;53.22;5.28;;;;;;;;;;4464604;32;20021;-70
2022/07/02 09:20:13;;;;;;;42.47;3.95;;;;;;;;;;4430845;32;20162;-73
2022/07/02 09:27:32;;;;;;;42.17;3.58;;;;;;;;;;4449167;32;20159;-72
2022/07/02 09:34:54;;;;;;;58.38;3.72;;;;;;;;;;4433699;32;20481;-73
2022/07/02 09:37:20;;;;;;;45.28;4.40;;;;;;;;;;4420402;32;20056;-73
2022/07/02 09:42:34;;;;;;;45.25;3.78;;;;;;;;;;4464718;32;20102;-73
2022/07/02 09:44:59;;;;;;;;;;;;;;;;;;4450088;32;20017;-74
2022/07/02 09:50:07;;;;;;;51.13;3.92;;;;;;;;;;4473493;32;20141;-73
2022/07/02 09:55:27;;;;;;;69.72;5.22;;;;;;;;;;4388551;32;20076;-72
2022/07/02 10:01:45;;;;;;;83.43;6.12;;;;;;;;;;4480008;31;20428;-74
2022/07/02 10:06:46;;;;;;;44.95;3.72;;;;;;;;;;4460861;32;20045;-74
2022/07/02 10:09:12;;;;;;;59.42;4.75;;;;;;;;;;4449347;32;20414;-73
2022/07/02 10:14:08;;;;;;;40.72;3.65;;;;;;;;;;4464603;32;20082;-73
2022/07/02 10:21:58;;;;;;;91.87;7.55;;;;;;;;;;4464629;31;20162;-72
2022/07/02 10:36:31;;;;;;;53.90;5.68;;;;;;;;;;4464523;32;20389;-73
2022/07/02 10:43:33;;;;;;;52.92;4.75;;;;;;;;;;4464699;32;20066;-74
2022/07/02 10:46:05;;;;;;;79.45;7.10;;;;;;;;;;4464849;32;20029;-74
2022/07/02 10:56:43;;;;;;;72.87;6.78;;;;;;;;;;4479609;31;20149;-74
2022/07/02 11:01:44;;;;;;;77.05;8.20;;;;;;;;;;4418957;32;20034;-73
2022/07/02 11:19:27;;;;;;;93.78;10.07;;;;;;;;;;4479881;31;20062;-73
2022/07/02 11:22:16;;;;;;;81.65;6.50;;;;;;;;;;4464959;32;20025;-72
2022/07/02 11:24:45;;;;;;;70.75;5.97;;;;;;;;;;4453434;32;20311;-72
2022/07/02 11:28:38;;;;;;;72.32;6.68;;;;;;;;;;4464663;32;20067;-75
2022/07/02 11:34:30;;;;;;;70.03;5.03;;;;;;;;;;4450283;32;20121;-73
